»·PEaware :: N8472W KSMO-KPOC

N8472W :: KSMO-KPOC

FLIGHT INFORMATION

Flight Status: Arrived
Operator: Privately registered:
United States
More flights under this callsign
Pilot: Leo M. (41422)
Aircraft: CESSNA 172 SKYHAWK
(C172)
More flights by this aircraft type
Origin: KSMO Santa Monica Mun
United States
Destination: KPOC Brackett
United States
More flights between these airports :: More routes between these airports
Route: SMO SMO125 V64 SLI V8 POXKU V363 POM
File this flight plan on PilotEdge
Remarks:
Altitude:
(Current/Filed)
5,000ft
Speed:
(Current/Filed)
0kts
Departed: 30-Sep-23 11:23 AM
Arrived: 30-Sep-23 12:16 PM
Distance/Time
Traveled:
34nm/0:53
Distance/Time
To Go:
Arrived

Flight Plot

Page will automatically refresh every two minutes.

Flight plan parsing failed; only flown route is shown


Map Options




Map Legend


Flown Route
Filed Route
Departure Airport
Arrival Airport
Navaid (VOR, NDB)
Fix

Horizontal Profiles

Position Reports

Time Latitude Longitude Heading Altitude Ground
Speed
30-Sep-23 11:10 34.016184 -118.452983 131 140ft 0kts
30-Sep-23 11:11 34.016184 -118.452983 131 140ft 0kts
30-Sep-23 11:12 34.016184 -118.452983 131 140ft 0kts
30-Sep-23 11:13 34.016184 -118.452983 131 140ft 0kts
30-Sep-23 11:14 34.016184 -118.452983 131 140ft 0kts
30-Sep-23 11:15 34.016184 -118.452983 131 140ft 0kts
30-Sep-23 11:16 34.016184 -118.452983 131 140ft 0kts
30-Sep-23 11:17 34.016138 -118.452844 94 139ft 2kts
30-Sep-23 11:18 34.018438 -118.449348 44 153ft 14kts
30-Sep-23 11:19 34.018924 -118.448568 99 156ft 0kts
30-Sep-23 11:20 34.018924 -118.448568 100 156ft 0kts
30-Sep-23 11:21 34.017838 -118.448897 223 151ft 35kts
30-Sep-23 11:22 34.001965 -118.467961 221 898ft 91kts
30-Sep-23 11:23 33.990152 -118.495111 261 1737ft 97kts
30-Sep-23 11:24 33.988614 -118.528112 261 2577ft 95kts
30-Sep-23 11:25 33.987333 -118.560886 261 3438ft 94kts
30-Sep-23 11:26 34.003782 -118.577634 31 4218ft 111kts
30-Sep-23 11:27 34.006636 -118.542850 94 4983ft 105kts
30-Sep-23 11:28 34.007834 -118.500612 89 5087ft 134kts
30-Sep-23 11:29 34.007126 -118.455314 130 5060ft 130kts
30-Sep-23 11:30 33.981114 -118.425560 143 5076ft 127kts
30-Sep-23 11:31 33.950452 -118.404206 158 5080ft 125kts
30-Sep-23 11:32 33.916532 -118.398524 181 5083ft 120kts
30-Sep-23 11:33 33.882292 -118.396112 182 5080ft 121kts
30-Sep-23 11:34 33.847215 -118.393341 180 5085ft 122kts
30-Sep-23 11:35 33.812074 -118.390649 180 5085ft 122kts
30-Sep-23 11:36 33.777004 -118.388045 181 5080ft 122kts
30-Sep-23 11:37 33.743510 -118.376912 143 5087ft 130kts
30-Sep-23 11:38 33.715114 -118.347247 143 5081ft 130kts
30-Sep-23 11:39 33.701991 -118.309912 65 5086ft 138kts
30-Sep-23 11:40 33.717099 -118.265556 68 5086ft 139kts
30-Sep-23 11:41 33.731302 -118.220640 68 5090ft 138kts
30-Sep-23 11:42 33.745356 -118.176045 69 5090ft 138kts
30-Sep-23 11:43 33.759243 -118.131876 69 5092ft 138kts
30-Sep-23 11:44 33.773094 -118.087787 68 5094ft 138kts
30-Sep-23 11:45 33.786379 -118.043599 72 5088ft 137kts
30-Sep-23 11:46 33.797899 -117.999107 73 5086ft 137kts
30-Sep-23 11:47 33.809434 -117.954578 72 5087ft 137kts
30-Sep-23 11:48 33.820920 -117.910129 72 5091ft 137kts
30-Sep-23 11:49 33.832510 -117.865367 71 5088ft 137kts
30-Sep-23 11:50 33.844120 -117.820406 71 5093ft 136kts
30-Sep-23 11:51 33.862942 -117.784013 2 5112ft 128kts
30-Sep-23 11:52 33.899366 -117.783820 355 5080ft 126kts
30-Sep-23 11:53 33.935777 -117.784532 351 5114ft 128kts
30-Sep-23 11:54 33.971191 -117.785008 350 5412ft 113kts
30-Sep-23 11:55 34.002712 -117.785885 353 6023ft 110kts
30-Sep-23 11:56 34.037573 -117.786450 354 6107ft 130kts
30-Sep-23 11:57 34.075125 -117.787175 354 6115ft 132kts
30-Sep-23 11:58 34.085182 -117.753260 120 6122ft 133kts
30-Sep-23 11:59 34.078979 -117.707536 93 6129ft 138kts
30-Sep-23 12:00 34.078790 -117.660401 89 6129ft 137kts
30-Sep-23 12:01 34.078906 -117.613577 90 6134ft 138kts
30-Sep-23 12:02 34.078925 -117.566486 91 6135ft 136kts
30-Sep-23 12:03 34.078829 -117.519248 98 6130ft 137kts
30-Sep-23 12:04 34.055850 -117.482468 132 5836ft 140kts
30-Sep-23 12:05 34.060117 -117.448861 352 5218ft 126kts
30-Sep-23 12:06 34.076047 -117.481622 279 4617ft 116kts
30-Sep-23 12:07 34.078666 -117.521265 273 4075ft 110kts
30-Sep-23 12:08 34.080309 -117.557550 272 3802ft 116kts
30-Sep-23 12:09 34.082320 -117.597785 272 3261ft 109kts
30-Sep-23 12:10 34.083974 -117.631611 273 3262ft 95kts
30-Sep-23 12:11 34.085540 -117.664251 273 3263ft 96kts
30-Sep-23 12:12 34.087428 -117.701403 273 2596ft 117kts
30-Sep-23 12:13 34.089342 -117.740704 273 1764ft 105kts
30-Sep-23 12:14 34.090783 -117.771812 273 1124ft 71kts
30-Sep-23 12:15 34.090813 -117.782518 219 993ft 4kts
30-Sep-23 12:16 34.089714 -117.783332 272 995ft 0kts
30-Sep-23 12:17 34.089714 -117.783332 272 995ft 0kts
30-Sep-23 12:19 34.089714 -117.783332 272 995ft 0kts
30-Sep-23 12:20 34.089714 -117.783332 272 995ft 0kts
30-Sep-23 12:21 34.089714 -117.783332 272 995ft 0kts
30-Sep-23 12:22 34.089714 -117.783332 272 995ft 0kts
30-Sep-23 12:23 34.089714 -117.783332 272 995ft 0kts
30-Sep-23 12:24 34.089714 -117.783332 272 995ft 0kts
30-Sep-23 12:25 34.089714 -117.783332 272 995ft 0kts
30-Sep-23 12:26 34.089714 -117.783332 272 995ft 0kts
30-Sep-23 12:27 34.089714 -117.783332 272 995ft 0kts
30-Sep-23 12:28 34.089714 -117.783332 272 995ft 0kts
30-Sep-23 12:29 34.089714 -117.783332 272 995ft 0kts
30-Sep-23 12:30 34.089714 -117.783332 272 995ft 0kts

Navigation Log

Ident Type
Flight plan parsing failed, navigation log unavailable